createdAt,value
2022-12-04T00:00:56.775Z,49.05
2022-12-04T00:03:23.254Z,47.38
2022-12-04T00:05:49.660Z,55.42
2022-12-04T00:08:16.048Z,49.83
2022-12-04T00:10:43.797Z,49.55
2022-12-04T00:13:10.357Z,40.83
2022-12-04T00:15:41.619Z,39.83
2022-12-04T00:18:08.075Z,48.83
2022-12-04T00:20:34.970Z,45.80
2022-12-04T00:23:01.323Z,49.08
2022-12-04T00:25:27.726Z,49.08
2022-12-04T00:27:54.090Z,45.42
2022-12-04T00:30:20.491Z,50.33
2022-12-04T00:32:46.994Z,34.83
2022-12-04T00:35:13.404Z,44.63
2022-12-04T00:37:39.831Z,42.15
2022-12-04T00:40:07.207Z,39.08
2022-12-04T00:42:33.659Z,49.65
2022-12-04T00:45:00.024Z,48.92
2022-12-04T00:47:26.466Z,32.47
2022-12-04T00:49:53.024Z,47.35
2022-12-04T00:52:19.756Z,29.10
2022-12-04T00:54:46.150Z,43.45
2022-12-04T00:57:12.560Z,48.35
2022-12-04T00:59:39.259Z,51.03
2022-12-04T01:02:05.636Z,50.03
2022-12-04T01:04:32.075Z,46.88
2022-12-04T01:07:04.617Z,52.22
2022-12-04T01:09:32.207Z,42.88
2022-12-04T01:11:58.630Z,50.17
2022-12-04T01:14:25.057Z,41.67
2022-12-04T01:16:51.689Z,45.90
2022-12-04T01:19:18.092Z,48.28
2022-12-04T01:21:44.544Z,54.17
2022-12-04T01:24:11.020Z,47.40
2022-12-04T01:26:37.505Z,47.17
2022-12-04T01:29:03.967Z,53.60
2022-12-04T01:31:30.681Z,50.25
2022-12-04T01:33:57.316Z,45.22
2022-12-04T01:36:26.297Z,45.10
2022-12-04T01:38:52.929Z,50.20
2022-12-04T01:41:22.444Z,52.17
2022-12-04T01:44:08.442Z,50.40
2022-12-04T01:46:34.868Z,49.22
2022-12-04T01:49:01.655Z,45.90
2022-12-04T01:51:35.127Z,48.35
2022-12-04T01:54:05.720Z,47.85
2022-12-04T01:56:36.788Z,47.22
2022-12-04T01:59:03.703Z,46.55
2022-12-04T02:01:36.505Z,51.33
2022-12-04T02:04:02.998Z,43.80
2022-12-04T02:06:29.452Z,54.28
2022-12-04T02:08:55.924Z,44.28
2022-12-04T02:11:25.296Z,46.00
2022-12-04T02:14:03.865Z,48.45
2022-12-04T02:16:38.385Z,50.33
2022-12-04T02:19:04.719Z,48.80
2022-12-04T02:21:39.278Z,49.17
2022-12-04T02:24:08.746Z,49.88
2022-12-04T02:26:47.723Z,49.90
2022-12-04T02:29:29.823Z,43.15
2022-12-04T02:32:01.214Z,49.50
2022-12-04T02:34:28.776Z,48.97
2022-12-04T02:37:00.634Z,50.22
2022-12-04T02:39:37.578Z,49.95
2022-12-04T02:42:36.782Z,54.72
2022-12-04T02:45:06.674Z,47.10
2022-12-04T02:47:33.413Z,48.85
2022-12-04T02:50:02.102Z,45.88
2022-12-04T02:52:33.304Z,42.95
2022-12-04T02:55:08.388Z,43.28
2022-12-04T02:57:38.446Z,46.65
2022-12-04T03:00:08.097Z,45.45
2022-12-04T03:02:47.183Z,47.47
2022-12-04T03:05:17.446Z,54.05
2022-12-04T03:07:50.504Z,47.70
2022-12-04T03:10:28.206Z,55.42
2022-12-04T03:12:57.791Z,51.25
2022-12-04T03:15:30.967Z,47.42
2022-12-04T03:18:07.313Z,46.85
2022-12-04T03:20:36.115Z,52.42
2022-12-04T03:23:09.064Z,49.15
2022-12-04T03:25:41.875Z,53.13
2022-12-04T03:28:22.924Z,52.85
2022-12-04T03:30:55.925Z,47.90
2022-12-04T03:33:31.783Z,51.53
2022-12-04T03:36:21.595Z,41.83
2022-12-04T03:38:57.144Z,43.28
2022-12-04T03:41:49.885Z,53.35
2022-12-04T03:44:23.895Z,49.33
2022-12-04T03:46:55.228Z,48.80
2022-12-04T03:49:33.580Z,53.58
2022-12-04T03:52:25.079Z,51.03
2022-12-04T03:55:16.126Z,42.65
2022-12-04T03:57:44.714Z,48.45
2022-12-04T04:00:21.486Z,53.92
2022-12-04T04:03:03.178Z,39.25
2022-12-04T04:05:30.332Z,55.60
2022-12-04T04:08:21.612Z,50.22
2022-12-04T04:10:49.405Z,50.28
2022-12-04T04:13:37.480Z,50.33
2022-12-04T04:16:24.247Z,50.83
2022-12-04T04:19:10.813Z,53.70
2022-12-04T04:21:57.388Z,50.13
2022-12-04T04:24:39.985Z,54.53
2022-12-04T04:27:06.394Z,48.67
2022-12-04T04:29:32.985Z,42.53
2022-12-04T04:32:04.574Z,56.28
2022-12-04T04:34:43.419Z,53.40
2022-12-04T04:38:00.875Z,55.15
2022-12-04T04:40:36.186Z,51.15
2022-12-04T04:43:14.456Z,57.97
2022-12-04T04:45:47.348Z,31.88
2022-12-04T04:48:20.365Z,54.60
2022-12-04T04:50:46.974Z,56.80
2022-12-04T04:53:16.536Z,49.22
2022-12-04T04:55:43.689Z,47.83
2022-12-04T04:58:12.574Z,53.72
2022-12-04T05:00:40.114Z,34.80
2022-12-04T05:03:06.761Z,53.63
2022-12-04T05:05:33.223Z,51.47
2022-12-04T05:07:59.704Z,50.65
2022-12-04T05:10:26.168Z,56.60
2022-12-04T05:12:52.535Z,43.17
2022-12-04T05:15:18.895Z,46.30
2022-12-04T05:17:45.251Z,52.22
2022-12-04T05:20:11.844Z,43.88
2022-12-04T05:22:38.506Z,53.63
2022-12-04T05:25:05.779Z,46.50
2022-12-04T05:27:32.508Z,55.53
2022-12-04T05:29:59.501Z,54.50
2022-12-04T05:32:29.010Z,54.05
2022-12-04T05:34:56.144Z,43.03
2022-12-04T05:37:23.186Z,48.83
2022-12-04T05:39:49.553Z,52.35
2022-12-04T05:42:15.973Z,52.38
2022-12-04T05:44:42.489Z,49.78
2022-12-04T05:47:08.974Z,60.90
2022-12-04T05:49:35.510Z,52.63
2022-12-04T05:52:03.765Z,28.33
2022-12-04T05:54:30.127Z,44.55
2022-12-04T05:56:56.525Z,35.05
2022-12-04T05:59:22.926Z,50.20
2022-12-04T06:01:49.339Z,47.60
2022-12-04T06:04:15.780Z,46.92
2022-12-04T06:06:42.193Z,52.47
2022-12-04T06:09:08.773Z,45.88
2022-12-04T06:11:37.695Z,41.25
2022-12-04T06:14:07.219Z,50.45
2022-12-04T06:16:39.480Z,42.97
2022-12-04T06:19:09.637Z,37.88
2022-12-04T06:21:37.924Z,51.00
2022-12-04T06:24:04.833Z,51.50
2022-12-04T06:26:31.275Z,31.13
2022-12-04T06:28:58.554Z,57.75
2022-12-04T06:31:27.027Z,34.50
2022-12-04T06:33:54.571Z,44.03
2022-12-04T06:36:21.976Z,48.15
2022-12-04T06:38:49.024Z,44.45
2022-12-04T06:41:17.894Z,55.88
2022-12-04T06:43:44.375Z,48.15
2022-12-04T06:46:16.308Z,51.42
2022-12-04T06:48:43.135Z,47.28
2022-12-04T06:51:20.791Z,50.40
2022-12-04T06:53:47.770Z,33.13
2022-12-04T06:56:17.947Z,46.83
2022-12-04T06:58:48.778Z,42.67
2022-12-04T07:01:18.509Z,49.45
2022-12-04T07:03:51.101Z,49.47
2022-12-04T07:06:21.301Z,47.03
2022-12-04T07:08:50.392Z,41.28
2022-12-04T07:11:17.058Z,40.83
2022-12-04T07:13:43.788Z,37.60
2022-12-04T07:16:15.197Z,48.83
2022-12-04T07:18:41.827Z,46.05
2022-12-04T07:21:10.570Z,50.40
2022-12-04T07:23:37.430Z,34.63
2022-12-04T07:26:08.330Z,49.28
2022-12-04T07:28:36.150Z,51.20
2022-12-04T07:31:06.891Z,51.30
2022-12-04T07:33:33.693Z,40.20
2022-12-04T07:36:01.091Z,50.70
2022-12-04T07:38:28.446Z,49.17
2022-12-04T07:40:59.092Z,48.97
2022-12-04T07:43:25.932Z,51.80
2022-12-04T07:45:52.391Z,50.08
2022-12-04T07:48:18.854Z,50.13
2022-12-04T07:50:45.246Z,53.80
2022-12-04T07:53:14.791Z,53.53
2022-12-04T07:55:41.453Z,52.58
2022-12-04T07:58:08.023Z,42.22
2022-12-04T08:00:34.462Z,38.83
2022-12-04T08:03:00.943Z,50.67
2022-12-04T08:05:27.382Z,45.80
2022-12-04T08:07:53.804Z,54.33
2022-12-04T08:10:20.281Z,53.53
2022-12-04T08:12:47.156Z,58.42
2022-12-04T08:15:13.528Z,54.42
2022-12-04T08:17:40.114Z,53.75
2022-12-04T08:20:07.254Z,46.83
2022-12-04T08:22:33.910Z,56.35
2022-12-04T08:25:00.318Z,52.28
2022-12-04T08:27:26.694Z,51.95
2022-12-04T08:29:53.450Z,55.05
2022-12-04T08:32:20.013Z,52.95
2022-12-04T08:34:49.787Z,51.75
2022-12-04T08:37:18.996Z,50.30
2022-12-04T08:39:45.495Z,34.92
2022-12-04T08:42:11.899Z,43.97
2022-12-04T08:44:38.258Z,51.90
2022-12-04T08:47:04.619Z,44.97
2022-12-04T08:49:31.019Z,48.75
2022-12-04T08:51:57.423Z,46.72
2022-12-04T08:54:23.888Z,53.17
2022-12-04T08:56:50.287Z,36.20
2022-12-04T08:59:16.694Z,46.67
2022-12-04T09:01:43.211Z,31.33
2022-12-04T09:04:09.762Z,49.33
2022-12-04T09:06:36.258Z,38.25
2022-12-04T09:09:03.870Z,44.50
2022-12-04T09:11:32.447Z,52.28
2022-12-04T09:13:59.328Z,45.17
2022-12-04T09:16:26.258Z,47.78
2022-12-04T09:18:53.694Z,42.00
2022-12-04T09:21:21.278Z,33.05
2022-12-04T09:23:47.877Z,40.42
2022-12-04T09:26:29.537Z,46.83
2022-12-04T09:28:56.368Z,32.42
2022-12-04T09:31:23.639Z,44.90
2022-12-04T09:33:50.478Z,48.20
2022-12-04T09:36:18.171Z,33.42
2022-12-04T09:38:46.085Z,40.45
2022-12-04T09:41:23.479Z,39.67
2022-12-04T09:43:57.799Z,41.88
2022-12-04T09:46:51.141Z,37.75
2022-12-04T09:49:24.119Z,30.92
2022-12-04T09:51:52.346Z,46.40
2022-12-04T09:54:21.826Z,39.50
2022-12-04T09:56:54.001Z,43.47
2022-12-04T09:59:23.784Z,42.15
2022-12-04T10:01:59.294Z,46.83
2022-12-04T10:04:25.745Z,44.75
2022-12-04T10:07:19.430Z,45.00
2022-12-04T10:10:04.514Z,43.90
2022-12-04T10:12:50.163Z,42.03
2022-12-04T10:15:28.689Z,43.22
2022-12-04T10:18:12.978Z,43.25
2022-12-04T10:20:50.935Z,39.28
2022-12-04T10:23:36.578Z,38.80
2022-12-04T10:26:03.984Z,42.63
2022-12-04T10:28:38.960Z,40.63
2022-12-04T10:31:10.071Z,42.80
2022-12-04T10:33:50.483Z,36.78
2022-12-04T10:36:19.803Z,37.58
2022-12-04T10:39:24.016Z,28.35
2022-12-04T10:42:36.168Z,29.58
2022-12-04T10:45:04.887Z,30.90
2022-12-04T10:47:31.690Z,33.10
2022-12-04T10:50:04.797Z,29.83
2022-12-04T10:52:31.183Z,29.67
2022-12-04T10:54:57.544Z,26.13
2022-12-04T10:57:37.861Z,28.98
2022-12-04T11:00:26.825Z,34.65
2022-12-04T11:05:29.916Z,31.55
2022-12-04T11:07:57.136Z,27.35
2022-12-04T11:10:41.812Z,23.55
2022-12-04T11:13:11.148Z,28.67
2022-12-04T11:15:52.341Z,31.60
2022-12-04T11:18:30.400Z,22.55
2022-12-04T11:21:04.241Z,27.15
2022-12-04T11:23:41.266Z,28.63
2022-12-04T11:26:08.282Z,30.80
2022-12-04T11:28:43.090Z,25.38
2022-12-04T11:31:11.695Z,29.42
2022-12-04T11:33:54.888Z,24.00
2022-12-04T11:36:27.155Z,22.85
2022-12-04T11:39:03.375Z,27.50
2022-12-04T11:41:31.234Z,25.50
2022-12-04T11:44:00.241Z,26.45
2022-12-04T11:46:31.795Z,22.77
2022-12-04T11:48:58.448Z,21.35
2022-12-04T11:51:24.737Z,21.30
2022-12-04T11:53:57.771Z,23.05
2022-12-04T11:56:30.189Z,24.15
2022-12-04T11:59:30.772Z,20.17
2022-12-04T12:02:27.521Z,22.70
2022-12-04T12:05:17.252Z,24.05
2022-12-04T12:08:08.675Z,24.48
2022-12-04T12:10:45.974Z,19.70
2022-12-04T12:13:28.391Z,19.15
2022-12-04T12:16:23.533Z,18.58
2022-12-04T12:21:41.254Z,22.92
2022-12-04T12:24:12.675Z,17.83
2022-12-04T12:26:49.472Z,23.60
2022-12-04T12:29:36.802Z,18.73
2022-12-04T12:32:43.584Z,13.77
2022-12-04T12:35:22.081Z,19.73
2022-12-04T12:37:53.628Z,17.25
2022-12-04T12:40:33.579Z,24.15
2022-12-04T12:43:10.884Z,26.55
2022-12-04T12:45:49.804Z,25.27
2022-12-04T12:48:30.093Z,14.95
2022-12-04T12:51:29.000Z,20.70
2022-12-04T12:54:00.812Z,19.40
2022-12-04T12:56:38.191Z,21.23
2022-12-04T12:59:06.039Z,16.88
2022-12-04T13:02:17.196Z,21.15
2022-12-04T13:04:45.506Z,17.35
2022-12-04T13:07:11.793Z,18.05
2022-12-04T13:09:42.297Z,18.58
2022-12-04T13:12:12.908Z,18.20
2022-12-04T13:14:40.866Z,22.52
2022-12-04T13:17:17.824Z,13.60
2022-12-04T13:19:52.871Z,19.65
2022-12-04T13:23:11.346Z,18.33
2022-12-04T13:25:43.767Z,20.40
2022-12-04T13:28:19.278Z,23.52
2022-12-04T13:30:56.210Z,19.05
2022-12-04T13:33:33.038Z,21.27
2022-12-04T13:36:23.636Z,19.35
2022-12-04T13:39:19.417Z,17.77
2022-12-04T13:41:45.935Z,22.80
2022-12-04T13:44:21.603Z,18.73
2022-12-04T13:46:54.776Z,21.77
2022-12-04T13:49:21.095Z,25.08
2022-12-04T13:51:51.160Z,25.30
2022-12-04T13:54:17.426Z,28.00
2022-12-04T13:56:49.579Z,15.20
2022-12-04T13:59:21.881Z,25.17
2022-12-04T14:01:54.761Z,21.75
2022-12-04T14:04:24.257Z,27.88
2022-12-04T14:06:51.878Z,42.47
2022-12-04T14:09:23.052Z,25.95
2022-12-04T14:11:54.075Z,27.85
2022-12-04T14:14:43.232Z,32.08
2022-12-04T14:17:19.203Z,28.02
2022-12-04T14:19:51.644Z,27.08
2022-12-04T14:22:44.530Z,28.10
2022-12-04T14:25:14.050Z,32.88
2022-12-04T14:27:40.384Z,30.27
2022-12-04T14:30:20.922Z,30.75
2022-12-04T14:32:50.019Z,22.83
2022-12-04T14:35:19.347Z,32.72
2022-12-04T14:37:57.153Z,30.50
2022-12-04T14:40:26.135Z,32.47
2022-12-04T14:42:52.647Z,31.52
2022-12-04T14:45:25.342Z,35.30
2022-12-04T14:48:18.844Z,34.60
2022-12-04T14:51:03.943Z,35.70
2022-12-04T14:53:35.566Z,34.47
2022-12-04T14:56:19.598Z,36.63
2022-12-04T14:58:46.096Z,41.13
2022-12-04T15:01:29.410Z,33.88
2022-12-04T15:03:57.953Z,34.13
2022-12-04T15:06:29.789Z,37.85
2022-12-04T15:09:19.562Z,36.55
2022-12-04T15:12:06.750Z,37.80
2022-12-04T15:14:43.987Z,38.92
2022-12-04T15:17:11.723Z,38.40
2022-12-04T15:19:38.869Z,38.13
2022-12-04T15:22:11.553Z,40.20
2022-12-04T15:24:38.622Z,38.72
2022-12-04T15:27:06.617Z,39.08
2022-12-04T15:29:34.948Z,31.08
2022-12-04T15:32:05.198Z,40.03
2022-12-04T15:34:41.208Z,42.60
2022-12-04T15:37:13.765Z,41.65
2022-12-04T15:39:40.727Z,40.47
2022-12-04T15:42:23.762Z,40.42
2022-12-04T15:45:00.909Z,39.08
2022-12-04T15:47:32.995Z,34.42
2022-12-04T15:50:26.860Z,35.90
2022-12-04T15:52:56.178Z,35.15
2022-12-04T15:55:24.151Z,31.88
2022-12-04T15:58:03.214Z,35.20
2022-12-04T16:00:36.298Z,31.25
2022-12-04T16:03:06.345Z,36.55
2022-12-04T16:05:35.391Z,31.17
2022-12-04T16:08:28.719Z,38.47
2022-12-04T16:11:04.485Z,30.70
2022-12-04T16:13:35.660Z,36.83
2022-12-04T16:16:06.498Z,36.70
2022-12-04T16:18:33.027Z,47.10
2022-12-04T16:20:59.714Z,42.42
2022-12-04T16:23:26.308Z,58.70
2022-12-04T16:25:53.834Z,42.20
2022-12-04T16:28:20.453Z,37.40
2022-12-04T16:30:47.174Z,35.42
2022-12-04T16:33:15.526Z,35.95
2022-12-04T16:35:42.325Z,27.55
2022-12-04T16:38:14.209Z,29.00
2022-12-04T16:40:41.891Z,25.15
2022-12-04T16:43:11.765Z,38.85
2022-12-04T16:45:38.270Z,28.98
2022-12-04T16:48:04.962Z,36.47
2022-12-04T16:50:31.333Z,37.72
2022-12-04T16:52:58.067Z,35.58
2022-12-04T16:55:31.982Z,37.40
2022-12-04T16:57:58.355Z,33.28
2022-12-04T17:00:24.726Z,37.92
2022-12-04T17:02:51.257Z,38.90
2022-12-04T17:05:24.351Z,36.17
2022-12-04T17:07:51.008Z,39.80
2022-12-04T17:10:23.558Z,28.65
2022-12-04T17:12:52.504Z,39.15
2022-12-04T17:15:18.965Z,39.72
2022-12-04T17:17:45.391Z,35.10
2022-12-04T17:20:14.274Z,37.03
2022-12-04T17:22:41.001Z,33.55
2022-12-04T17:25:09.419Z,33.40
2022-12-04T17:27:35.917Z,24.45
2022-12-04T17:30:02.730Z,29.90
2022-12-04T17:32:32.963Z,34.15
2022-12-04T17:34:59.579Z,31.75
2022-12-04T17:37:26.159Z,34.95
2022-12-04T17:39:52.692Z,34.20
2022-12-04T17:42:19.794Z,23.35
2022-12-04T17:44:46.193Z,30.55
2022-12-04T17:47:12.731Z,37.05
2022-12-04T17:49:39.234Z,34.28
2022-12-04T17:52:05.590Z,29.58
2022-12-04T17:54:32.091Z,23.80
2022-12-04T17:56:58.533Z,30.40
2022-12-04T17:59:24.943Z,30.83
2022-12-04T18:01:51.354Z,30.13
2022-12-04T18:04:19.195Z,30.85
2022-12-04T18:06:46.383Z,22.83
2022-12-04T18:09:17.419Z,22.98
2022-12-04T18:11:45.775Z,29.73
2022-12-04T18:14:15.165Z,29.50
2022-12-04T18:16:44.886Z,29.27
2022-12-04T18:19:12.078Z,32.75
2022-12-04T18:21:38.586Z,30.58
2022-12-04T18:24:05.479Z,27.73
2022-12-04T18:26:35.165Z,34.85
2022-12-04T18:29:01.728Z,33.72
2022-12-04T18:31:28.264Z,31.98
2022-12-04T18:33:54.643Z,41.72
2022-12-04T18:36:23.918Z,35.47
2022-12-04T18:38:55.648Z,36.92
2022-12-04T18:41:22.393Z,42.28
2022-12-04T18:43:48.823Z,26.98
2022-12-04T18:46:16.311Z,38.80
2022-12-04T18:48:43.867Z,41.03
2022-12-04T18:51:19.815Z,38.55
2022-12-04T18:53:46.423Z,39.90
2022-12-04T18:56:12.886Z,45.40
2022-12-04T18:58:39.402Z,41.83
2022-12-04T19:01:07.832Z,46.88
2022-12-04T19:03:34.903Z,47.28
2022-12-04T19:06:01.537Z,46.85
2022-12-04T19:08:33.604Z,43.53
2022-12-04T19:11:11.969Z,44.05
2022-12-04T19:13:38.469Z,36.00
2022-12-04T19:16:09.768Z,32.10
2022-12-04T19:18:36.428Z,48.08
2022-12-04T19:21:05.374Z,49.40
2022-12-04T19:23:31.787Z,42.58
2022-12-04T19:25:59.423Z,41.83
2022-12-04T19:28:27.509Z,46.47
2022-12-04T19:30:55.035Z,45.65
2022-12-04T19:33:22.831Z,43.40
2022-12-04T19:35:57.147Z,52.65
2022-12-04T19:38:23.703Z,36.97
2022-12-04T19:40:50.129Z,44.83
2022-12-04T19:43:16.543Z,41.47
2022-12-04T19:45:49.411Z,37.95
2022-12-04T19:48:15.903Z,36.72
2022-12-04T19:50:42.700Z,35.90
2022-12-04T19:53:09.052Z,45.55
2022-12-04T19:55:36.289Z,50.35
2022-12-04T19:58:02.669Z,53.60
2022-12-04T20:00:29.163Z,47.65
2022-12-04T20:02:55.732Z,44.20
2022-12-04T20:05:22.150Z,43.20
2022-12-04T20:07:48.576Z,30.13
2022-12-04T20:10:15.956Z,43.20
2022-12-04T20:12:42.418Z,41.00
2022-12-04T20:15:09.555Z,41.03
2022-12-04T20:17:36.412Z,39.58
2022-12-04T20:20:03.187Z,39.83
2022-12-04T20:22:30.504Z,40.55
2022-12-04T20:24:56.907Z,38.08
2022-12-04T20:27:23.354Z,43.90
2022-12-04T20:29:49.752Z,33.83
2022-12-04T20:32:16.157Z,33.38
2022-12-04T20:34:43.865Z,39.70
2022-12-04T20:37:14.393Z,38.28
2022-12-04T20:42:16.845Z,42.55
2022-12-04T20:44:43.308Z,35.30
2022-12-04T20:47:09.783Z,36.78
2022-12-04T20:49:36.454Z,42.45
2022-12-04T20:52:20.242Z,44.60
2022-12-04T20:54:51.496Z,36.38
2022-12-04T20:57:34.248Z,44.22
2022-12-04T21:00:25.236Z,38.90
2022-12-04T21:03:00.510Z,44.72
2022-12-04T21:05:39.589Z,37.75
2022-12-04T21:08:15.947Z,40.38
2022-12-04T21:14:01.332Z,40.63
2022-12-04T21:16:30.240Z,41.22
2022-12-04T21:19:03.947Z,39.22
2022-12-04T21:21:39.439Z,38.70
2022-12-04T21:24:08.133Z,35.67
2022-12-04T21:26:36.690Z,40.65
2022-12-04T21:29:04.081Z,41.25
2022-12-04T21:31:46.611Z,44.75
2022-12-04T21:34:31.979Z,41.92
2022-12-04T21:36:58.450Z,41.92
2022-12-04T21:42:35.839Z,43.17
2022-12-04T21:48:09.334Z,40.80
2022-12-04T21:53:42.395Z,39.58
2022-12-04T21:56:32.600Z,43.78
2022-12-04T21:58:59.121Z,39.55
2022-12-04T22:01:25.978Z,41.53
2022-12-04T22:03:52.781Z,34.55
2022-12-04T22:06:20.453Z,41.90
2022-12-04T22:08:47.337Z,36.85
2022-12-04T22:11:15.051Z,40.22
2022-12-04T22:13:41.710Z,44.05
2022-12-04T22:16:14.272Z,48.20
2022-12-04T22:18:41.309Z,31.42
2022-12-04T22:21:13.633Z,41.15
2022-12-04T22:23:42.474Z,39.10
2022-12-04T22:26:16.101Z,44.72
2022-12-04T22:28:42.825Z,39.85
2022-12-04T22:31:11.990Z,42.42
2022-12-04T22:33:39.191Z,39.70
2022-12-04T22:36:17.687Z,39.85
2022-12-04T22:39:05.924Z,39.97
2022-12-04T22:41:30.871Z,38.72
2022-12-04T22:43:57.299Z,37.88
2022-12-04T22:46:23.827Z,38.78
2022-12-04T22:48:50.294Z,37.05
2022-12-04T22:51:19.187Z,37.80
2022-12-04T22:53:51.001Z,38.10
2022-12-04T22:56:23.663Z,40.92
2022-12-04T22:58:50.533Z,33.78
2022-12-04T23:01:30.783Z,35.50
2022-12-04T23:03:57.817Z,36.38
2022-12-04T23:06:26.622Z,34.10
2022-12-04T23:09:01.306Z,34.58
2022-12-04T23:11:28.629Z,38.38
2022-12-04T23:14:00.835Z,34.10
2022-12-04T23:16:29.237Z,35.58
2022-12-04T23:18:56.069Z,37.97
2022-12-04T23:21:23.357Z,35.63
2022-12-04T23:23:51.564Z,38.95
2022-12-04T23:26:21.322Z,32.65
2022-12-04T23:28:47.786Z,36.20
2022-12-04T23:31:14.801Z,31.73
2022-12-04T23:33:41.565Z,34.28
2022-12-04T23:36:09.789Z,33.42
2022-12-04T23:38:37.415Z,32.85
2022-12-04T23:41:05.809Z,31.58
2022-12-04T23:43:32.342Z,31.73
2022-12-04T23:45:58.871Z,31.13
2022-12-04T23:48:26.112Z,31.77
2022-12-04T23:50:52.859Z,31.30
2022-12-04T23:53:19.903Z,35.58
2022-12-04T23:56:04.639Z,32.65
2022-12-04T23:58:32.266Z,25.98
